Terminal Aerodrome Forecast
Issued by NWS Bismarck, ND

Home | Current Version | Previous Version | Text Only | Print | Product List | Glossary Off
Versions: 1 2 3 4 5 6 7 8 9 10 11 12 13 14 15

000
FTUS43 KBIS 271100
TAFISN
TAF
KISN 271120Z 2712/2812 36009KT P6SM SKC
     FM271700 02017G23KT P6SM BKN080
     FM280300 02018G24KT P6SM BKN040 OVC080
     FM280900 02015KT P6SM -SHRA BKN025 OVC040=

USA.gov is the U.S. government's official web portal to all federal, state and local government web resources and services.